sensor_id;sensor_type;location;lat;lon;timestamp;P1;durP1;ratioP1;P2;durP2;ratioP2
12441;SDS011;6285;48.804;9.220;2023-04-21T00:02:12;21.05;;;18.67;;
12441;SDS011;6285;48.804;9.220;2023-04-21T00:04:40;20.38;;;18.17;;
12441;SDS011;6285;48.804;9.220;2023-04-21T00:07:09;20.27;;;18.08;;
12441;SDS011;6285;48.804;9.220;2023-04-21T00:09:38;20.02;;;17.65;;
12441;SDS011;6285;48.804;9.220;2023-04-21T00:12:05;18.58;;;16.70;;
12441;SDS011;6285;48.804;9.220;2023-04-21T00:14:33;18.38;;;16.40;;
12441;SDS011;6285;48.804;9.220;2023-04-21T00:17:01;19.55;;;16.90;;
12441;SDS011;6285;48.804;9.220;2023-04-21T00:19:28;19.23;;;17.23;;
12441;SDS011;6285;48.804;9.220;2023-04-21T00:21:55;20.00;;;17.27;;
12441;SDS011;6285;48.804;9.220;2023-04-21T00:24:25;20.40;;;17.08;;
12441;SDS011;6285;48.804;9.220;2023-04-21T00:26:52;18.77;;;16.77;;
12441;SDS011;6285;48.804;9.220;2023-04-21T00:29:19;18.08;;;16.17;;
12441;SDS011;6285;48.804;9.220;2023-04-21T00:31:46;20.10;;;16.83;;
12441;SDS011;6285;48.804;9.220;2023-04-21T00:34:14;17.88;;;15.82;;
12441;SDS011;6285;48.804;9.220;2023-04-21T00:36:41;17.10;;;14.98;;
12441;SDS011;6285;48.804;9.220;2023-04-21T00:39:08;18.08;;;16.15;;
12441;SDS011;6285;48.804;9.220;2023-04-21T00:41:35;17.98;;;16.00;;
12441;SDS011;6285;48.804;9.220;2023-04-21T00:44:04;16.88;;;15.00;;
12441;SDS011;6285;48.804;9.220;2023-04-21T00:46:32;19.88;;;16.48;;
12441;SDS011;6285;48.804;9.220;2023-04-21T00:48:59;18.55;;;16.63;;
12441;SDS011;6285;48.804;9.220;2023-04-21T00:51:31;17.15;;;15.32;;
12441;SDS011;6285;48.804;9.220;2023-04-21T00:53:59;17.05;;;15.27;;
12441;SDS011;6285;48.804;9.220;2023-04-21T00:56:26;17.77;;;15.43;;
12441;SDS011;6285;48.804;9.220;2023-04-21T00:58:53;17.40;;;15.30;;
12441;SDS011;6285;48.804;9.220;2023-04-21T01:01:21;16.77;;;15.02;;
12441;SDS011;6285;48.804;9.220;2023-04-21T01:03:48;16.40;;;14.52;;
12441;SDS011;6285;48.804;9.220;2023-04-21T01:06:15;16.23;;;14.50;;
12441;SDS011;6285;48.804;9.220;2023-04-21T01:08:45;16.58;;;14.85;;
12441;SDS011;6285;48.804;9.220;2023-04-21T01:11:12;15.90;;;14.23;;
12441;SDS011;6285;48.804;9.220;2023-04-21T01:13:39;16.85;;;15.05;;
12441;SDS011;6285;48.804;9.220;2023-04-21T01:16:07;16.38;;;14.65;;
12441;SDS011;6285;48.804;9.220;2023-04-21T01:18:34;16.70;;;14.93;;
12441;SDS011;6285;48.804;9.220;2023-04-21T01:21:02;16.77;;;14.98;;
12441;SDS011;6285;48.804;9.220;2023-04-21T01:23:31;19.73;;;16.45;;
12441;SDS011;6285;48.804;9.220;2023-04-21T01:25:57;18.00;;;15.90;;
12441;SDS011;6285;48.804;9.220;2023-04-21T01:28:25;18.13;;;15.43;;
12441;SDS011;6285;48.804;9.220;2023-04-21T01:30:52;18.20;;;15.25;;
12441;SDS011;6285;48.804;9.220;2023-04-21T01:33:19;17.02;;;15.02;;
12441;SDS011;6285;48.804;9.220;2023-04-21T01:35:46;17.27;;;15.48;;
12441;SDS011;6285;48.804;9.220;2023-04-21T01:38:14;16.75;;;15.05;;
12441;SDS011;6285;48.804;9.220;2023-04-21T01:40:45;16.90;;;15.10;;
12441;SDS011;6285;48.804;9.220;2023-04-21T01:43:13;16.42;;;14.57;;
12441;SDS011;6285;48.804;9.220;2023-04-21T01:45:40;18.55;;;15.20;;
12441;SDS011;6285;48.804;9.220;2023-04-21T01:48:08;17.55;;;14.75;;
12441;SDS011;6285;48.804;9.220;2023-04-21T01:50:35;16.23;;;14.52;;
12441;SDS011;6285;48.804;9.220;2023-04-21T01:53:02;16.98;;;15.15;;
12441;SDS011;6285;48.804;9.220;2023-04-21T01:55:29;16.95;;;15.23;;
12441;SDS011;6285;48.804;9.220;2023-04-21T01:57:58;16.15;;;14.45;;
12441;SDS011;6285;48.804;9.220;2023-04-21T02:00:25;18.30;;;15.80;;
12441;SDS011;6285;48.804;9.220;2023-04-21T02:02:52;16.40;;;14.65;;
12441;SDS011;6285;48.804;9.220;2023-04-21T02:05:19;17.48;;;14.73;;
12441;SDS011;6285;48.804;9.220;2023-04-21T02:07:46;15.55;;;13.85;;
12441;SDS011;6285;48.804;9.220;2023-04-21T02:10:14;17.52;;;15.13;;
12441;SDS011;6285;48.804;9.220;2023-04-21T02:12:40;18.10;;;15.70;;
12441;SDS011;6285;48.804;9.220;2023-04-21T02:15:09;18.10;;;15.25;;
12441;SDS011;6285;48.804;9.220;2023-04-21T02:17:37;17.33;;;15.07;;
12441;SDS011;6285;48.804;9.220;2023-04-21T02:20:04;19.52;;;15.70;;
12441;SDS011;6285;48.804;9.220;2023-04-21T02:22:31;19.15;;;15.88;;
12441;SDS011;6285;48.804;9.220;2023-04-21T02:24:58;17.98;;;15.30;;
12441;SDS011;6285;48.804;9.220;2023-04-21T02:27:25;19.70;;;16.40;;
12441;SDS011;6285;48.804;9.220;2023-04-21T02:29:52;18.00;;;15.35;;
12441;SDS011;6285;48.804;9.220;2023-04-21T02:32:21;20.58;;;17.55;;
12441;SDS011;6285;48.804;9.220;2023-04-21T02:34:48;19.88;;;17.33;;
12441;SDS011;6285;48.804;9.220;2023-04-21T02:37:15;19.55;;;17.15;;
12441;SDS011;6285;48.804;9.220;2023-04-21T02:39:42;20.23;;;17.35;;
12441;SDS011;6285;48.804;9.220;2023-04-21T02:42:09;21.55;;;17.13;;
12441;SDS011;6285;48.804;9.220;2023-04-21T02:44:36;20.70;;;17.38;;
12441;SDS011;6285;48.804;9.220;2023-04-21T02:47:03;21.77;;;17.58;;
12441;SDS011;6285;48.804;9.220;2023-04-21T02:49:31;20.00;;;16.35;;
12441;SDS011;6285;48.804;9.220;2023-04-21T02:51:58;19.50;;;16.60;;
12441;SDS011;6285;48.804;9.220;2023-04-21T02:54:25;19.45;;;16.73;;
12441;SDS011;6285;48.804;9.220;2023-04-21T02:56:52;19.52;;;16.73;;
12441;SDS011;6285;48.804;9.220;2023-04-21T02:59:19;19.83;;;16.42;;
12441;SDS011;6285;48.804;9.220;2023-04-21T03:01:46;18.90;;;16.30;;
12441;SDS011;6285;48.804;9.220;2023-04-21T03:04:14;20.40;;;17.15;;
12441;SDS011;6285;48.804;9.220;2023-04-21T03:06:42;18.73;;;16.25;;
12441;SDS011;6285;48.804;9.220;2023-04-21T03:09:09;21.52;;;17.02;;
12441;SDS011;6285;48.804;9.220;2023-04-21T03:11:36;19.17;;;16.88;;
12441;SDS011;6285;48.804;9.220;2023-04-21T03:14:03;21.27;;;17.33;;
12441;SDS011;6285;48.804;9.220;2023-04-21T03:16:30;19.23;;;16.48;;
12441;SDS011;6285;48.804;9.220;2023-04-21T03:18:57;19.95;;;15.88;;
12441;SDS011;6285;48.804;9.220;2023-04-21T03:21:25;20.55;;;16.83;;
12441;SDS011;6285;48.804;9.220;2023-04-21T03:23:53;17.42;;;15.43;;
12441;SDS011;6285;48.804;9.220;2023-04-21T03:26:20;19.77;;;16.08;;
12441;SDS011;6285;48.804;9.220;2023-04-21T03:28:47;18.15;;;14.85;;
12441;SDS011;6285;48.804;9.220;2023-04-21T03:31:14;18.17;;;14.55;;
12441;SDS011;6285;48.804;9.220;2023-04-21T03:33:41;16.88;;;14.30;;
12441;SDS011;6285;48.804;9.220;2023-04-21T03:36:08;18.50;;;14.30;;
12441;SDS011;6285;48.804;9.220;2023-04-21T03:38:35;14.95;;;13.38;;
12441;SDS011;6285;48.804;9.220;2023-04-21T03:41:04;18.58;;;14.45;;
12441;SDS011;6285;48.804;9.220;2023-04-21T03:43:31;15.73;;;13.80;;
12441;SDS011;6285;48.804;9.220;2023-04-21T03:45:58;18.42;;;14.52;;
12441;SDS011;6285;48.804;9.220;2023-04-21T03:48:26;17.88;;;13.98;;
12441;SDS011;6285;48.804;9.220;2023-04-21T03:50:53;15.75;;;13.25;;
12441;SDS011;6285;48.804;9.220;2023-04-21T03:53:20;15.98;;;13.60;;
12441;SDS011;6285;48.804;9.220;2023-04-21T03:55:48;16.63;;;13.73;;
12441;SDS011;6285;48.804;9.220;2023-04-21T03:58:17;15.07;;;13.10;;
12441;SDS011;6285;48.804;9.220;2023-04-21T04:00:44;13.98;;;12.35;;
12441;SDS011;6285;48.804;9.220;2023-04-21T04:03:11;15.48;;;13.00;;
12441;SDS011;6285;48.804;9.220;2023-04-21T04:05:38;15.15;;;13.00;;
12441;SDS011;6285;48.804;9.220;2023-04-21T04:08:05;15.02;;;12.75;;
12441;SDS011;6285;48.804;9.220;2023-04-21T04:10:32;14.25;;;12.23;;
12441;SDS011;6285;48.804;9.220;2023-04-21T04:12:59;15.52;;;12.93;;
12441;SDS011;6285;48.804;9.220;2023-04-21T04:15:28;14.90;;;12.38;;
12441;SDS011;6285;48.804;9.220;2023-04-21T04:17:55;14.77;;;12.55;;
12441;SDS011;6285;48.804;9.220;2023-04-21T04:20:22;14.40;;;12.48;;
12441;SDS011;6285;48.804;9.220;2023-04-21T04:22:49;16.02;;;13.02;;
12441;SDS011;6285;48.804;9.220;2023-04-21T04:25:16;15.05;;;12.95;;
12441;SDS011;6285;48.804;9.220;2023-04-21T04:27:43;15.00;;;12.65;;
12441;SDS011;6285;48.804;9.220;2023-04-21T04:30:10;14.95;;;13.38;;
12441;SDS011;6285;48.804;9.220;2023-04-21T04:32:39;15.05;;;12.77;;
12441;SDS011;6285;48.804;9.220;2023-04-21T04:35:06;16.00;;;13.52;;
12441;SDS011;6285;48.804;9.220;2023-04-21T04:37:34;15.18;;;13.38;;
12441;SDS011;6285;48.804;9.220;2023-04-21T04:40:01;15.13;;;13.50;;
12441;SDS011;6285;48.804;9.220;2023-04-21T04:42:30;17.92;;;13.95;;
12441;SDS011;6285;48.804;9.220;2023-04-21T04:44:58;14.45;;;12.68;;
12441;SDS011;6285;48.804;9.220;2023-04-21T04:47:26;15.07;;;13.00;;
12441;SDS011;6285;48.804;9.220;2023-04-21T04:49:55;14.43;;;11.93;;
12441;SDS011;6285;48.804;9.220;2023-04-21T04:52:22;15.30;;;13.05;;
12441;SDS011;6285;48.804;9.220;2023-04-21T04:54:49;14.68;;;12.60;;
12441;SDS011;6285;48.804;9.220;2023-04-21T04:57:16;13.55;;;12.15;;
12441;SDS011;6285;48.804;9.220;2023-04-21T04:59:43;14.00;;;12.52;;
12441;SDS011;6285;48.804;9.220;2023-04-21T05:02:10;15.95;;;12.50;;
12441;SDS011;6285;48.804;9.220;2023-04-21T05:04:38;15.68;;;13.32;;
12441;SDS011;6285;48.804;9.220;2023-04-21T05:07:06;26.00;;;20.70;;
12441;SDS011;6285;48.804;9.220;2023-04-21T05:09:33;29.25;;;22.08;;
12441;SDS011;6285;48.804;9.220;2023-04-21T05:12:00;30.40;;;21.98;;
12441;SDS011;6285;48.804;9.220;2023-04-21T05:14:27;28.33;;;21.95;;
12441;SDS011;6285;48.804;9.220;2023-04-21T05:16:55;28.40;;;23.05;;
12441;SDS011;6285;48.804;9.220;2023-04-21T05:19:22;30.58;;;22.90;;
12441;SDS011;6285;48.804;9.220;2023-04-21T05:21:50;31.02;;;23.55;;
12441;SDS011;6285;48.804;9.220;2023-04-21T05:24:18;28.63;;;22.40;;
12441;SDS011;6285;48.804;9.220;2023-04-21T05:26:48;30.13;;;23.35;;
12441;SDS011;6285;48.804;9.220;2023-04-21T05:29:15;29.42;;;23.15;;
12441;SDS011;6285;48.804;9.220;2023-04-21T05:31:42;32.08;;;23.15;;
12441;SDS011;6285;48.804;9.220;2023-04-21T05:34:09;30.52;;;22.67;;
12441;SDS011;6285;48.804;9.220;2023-04-21T05:36:39;32.03;;;23.15;;
12441;SDS011;6285;48.804;9.220;2023-04-21T05:39:07;29.95;;;22.25;;
12441;SDS011;6285;48.804;9.220;2023-04-21T05:41:35;23.55;;;19.67;;
12441;SDS011;6285;48.804;9.220;2023-04-21T05:44:02;27.50;;;20.38;;
12441;SDS011;6285;48.804;9.220;2023-04-21T05:46:29;28.17;;;21.23;;
12441;SDS011;6285;48.804;9.220;2023-04-21T05:48:58;30.65;;;22.25;;
12441;SDS011;6285;48.804;9.220;2023-04-21T05:51:26;31.05;;;22.48;;
12441;SDS011;6285;48.804;9.220;2023-04-21T05:53:53;33.72;;;23.17;;
12441;SDS011;6285;48.804;9.220;2023-04-21T05:56:20;28.73;;;21.48;;
12441;SDS011;6285;48.804;9.220;2023-04-21T05:58:48;27.80;;;21.02;;
12441;SDS011;6285;48.804;9.220;2023-04-21T06:01:15;27.92;;;21.00;;
12441;SDS011;6285;48.804;9.220;2023-04-21T06:03:43;29.33;;;21.92;;
12441;SDS011;6285;48.804;9.220;2023-04-21T06:06:12;27.55;;;19.38;;
12441;SDS011;6285;48.804;9.220;2023-04-21T06:08:39;26.85;;;19.70;;
12441;SDS011;6285;48.804;9.220;2023-04-21T06:11:07;24.73;;;19.30;;
12441;SDS011;6285;48.804;9.220;2023-04-21T06:13:34;22.60;;;17.95;;
12441;SDS011;6285;48.804;9.220;2023-04-21T06:16:02;21.60;;;17.63;;
12441;SDS011;6285;48.804;9.220;2023-04-21T06:18:29;24.90;;;18.33;;
12441;SDS011;6285;48.804;9.220;2023-04-21T06:20:56;23.05;;;18.92;;
12441;SDS011;6285;48.804;9.220;2023-04-21T06:23:23;23.17;;;18.45;;
12441;SDS011;6285;48.804;9.220;2023-04-21T06:25:59;21.48;;;17.88;;
12441;SDS011;6285;48.804;9.220;2023-04-21T06:28:29;23.08;;;18.15;;
12441;SDS011;6285;48.804;9.220;2023-04-21T06:30:56;23.02;;;18.80;;
12441;SDS011;6285;48.804;9.220;2023-04-21T06:33:24;24.75;;;19.75;;
12441;SDS011;6285;48.804;9.220;2023-04-21T06:35:52;26.42;;;20.58;;
12441;SDS011;6285;48.804;9.220;2023-04-21T06:38:19;23.48;;;19.33;;
12441;SDS011;6285;48.804;9.220;2023-04-21T06:40:46;22.77;;;18.58;;
12441;SDS011;6285;48.804;9.220;2023-04-21T06:43:13;23.02;;;18.33;;
12441;SDS011;6285;48.804;9.220;2023-04-21T06:45:40;25.40;;;18.67;;
12441;SDS011;6285;48.804;9.220;2023-04-21T06:48:08;20.75;;;17.88;;
12441;SDS011;6285;48.804;9.220;2023-04-21T06:50:36;21.92;;;18.40;;
12441;SDS011;6285;48.804;9.220;2023-04-21T06:53:03;22.65;;;18.50;;
12441;SDS011;6285;48.804;9.220;2023-04-21T06:55:30;22.02;;;18.83;;
12441;SDS011;6285;48.804;9.220;2023-04-21T06:57:57;25.05;;;19.67;;
12441;SDS011;6285;48.804;9.220;2023-04-21T07:00:24;23.75;;;18.98;;
12441;SDS011;6285;48.804;9.220;2023-04-21T07:02:51;23.08;;;19.13;;
12441;SDS011;6285;48.804;9.220;2023-04-21T07:05:18;22.00;;;19.30;;
12441;SDS011;6285;48.804;9.220;2023-04-21T07:07:49;22.23;;;18.25;;
12441;SDS011;6285;48.804;9.220;2023-04-21T07:10:15;22.77;;;18.10;;
12441;SDS011;6285;48.804;9.220;2023-04-21T07:12:43;20.98;;;17.92;;
12441;SDS011;6285;48.804;9.220;2023-04-21T07:15:10;23.38;;;17.98;;
12441;SDS011;6285;48.804;9.220;2023-04-21T07:17:37;23.17;;;18.65;;
12441;SDS011;6285;48.804;9.220;2023-04-21T07:20:05;22.27;;;17.95;;
12441;SDS011;6285;48.804;9.220;2023-04-21T07:22:32;22.30;;;18.17;;
12441;SDS011;6285;48.804;9.220;2023-04-21T07:25:01;19.75;;;17.52;;
12441;SDS011;6285;48.804;9.220;2023-04-21T07:27:30;22.35;;;17.52;;
12441;SDS011;6285;48.804;9.220;2023-04-21T07:29:57;23.05;;;17.70;;
12441;SDS011;6285;48.804;9.220;2023-04-21T07:32:24;22.20;;;16.95;;
12441;SDS011;6285;48.804;9.220;2023-04-21T07:34:51;18.95;;;16.23;;
12441;SDS011;6285;48.804;9.220;2023-04-21T07:37:18;17.90;;;15.82;;
12441;SDS011;6285;48.804;9.220;2023-04-21T07:39:45;18.45;;;16.40;;
12441;SDS011;6285;48.804;9.220;2023-04-21T07:42:14;16.70;;;14.90;;
12441;SDS011;6285;48.804;9.220;2023-04-21T07:44:41;17.83;;;14.82;;
12441;SDS011;6285;48.804;9.220;2023-04-21T07:47:08;16.50;;;14.80;;
12441;SDS011;6285;48.804;9.220;2023-04-21T07:49:35;17.10;;;15.00;;
12441;SDS011;6285;48.804;9.220;2023-04-21T07:52:01;17.48;;;14.48;;
12441;SDS011;6285;48.804;9.220;2023-04-21T07:54:28;16.38;;;14.68;;
12441;SDS011;6285;48.804;9.220;2023-04-21T07:56:55;15.85;;;14.23;;
12441;SDS011;6285;48.804;9.220;2023-04-21T07:59:23;19.33;;;15.30;;
12441;SDS011;6285;48.804;9.220;2023-04-21T08:01:50;17.27;;;13.75;;
12441;SDS011;6285;48.804;9.220;2023-04-21T08:04:17;17.73;;;14.10;;
12441;SDS011;6285;48.804;9.220;2023-04-21T08:06:44;16.10;;;13.93;;
12441;SDS011;6285;48.804;9.220;2023-04-21T08:09:11;16.63;;;14.52;;
12441;SDS011;6285;48.804;9.220;2023-04-21T08:11:38;16.02;;;14.43;;
12441;SDS011;6285;48.804;9.220;2023-04-21T08:14:05;15.07;;;13.48;;
12441;SDS011;6285;48.804;9.220;2023-04-21T08:16:35;15.25;;;13.20;;
12441;SDS011;6285;48.804;9.220;2023-04-21T08:19:02;13.45;;;12.05;;
12441;SDS011;6285;48.804;9.220;2023-04-21T08:21:30;14.45;;;12.88;;
12441;SDS011;6285;48.804;9.220;2023-04-21T08:23:58;13.52;;;12.13;;
12441;SDS011;6285;48.804;9.220;2023-04-21T08:26:25;13.15;;;11.85;;
12441;SDS011;6285;48.804;9.220;2023-04-21T08:28:54;14.52;;;13.02;;
12441;SDS011;6285;48.804;9.220;2023-04-21T08:31:21;14.32;;;12.88;;
12441;SDS011;6285;48.804;9.220;2023-04-21T08:33:49;10.15;;;9.15;;
12441;SDS011;6285;48.804;9.220;2023-04-21T08:36:16;11.50;;;10.30;;
12441;SDS011;6285;48.804;9.220;2023-04-21T08:38:43;11.13;;;10.02;;
12441;SDS011;6285;48.804;9.220;2023-04-21T08:41:10;9.65;;;8.75;;
12441;SDS011;6285;48.804;9.220;2023-04-21T08:43:36;10.70;;;9.65;;
12441;SDS011;6285;48.804;9.220;2023-04-21T08:46:05;10.43;;;9.43;;
12441;SDS011;6285;48.804;9.220;2023-04-21T08:48:33;10.23;;;9.23;;
12441;SDS011;6285;48.804;9.220;2023-04-21T08:51:03;12.07;;;10.60;;
12441;SDS011;6285;48.804;9.220;2023-04-21T08:53:33;10.02;;;8.98;;
12441;SDS011;6285;48.804;9.220;2023-04-21T08:56:01;10.40;;;9.50;;
12441;SDS011;6285;48.804;9.220;2023-04-21T08:58:28;10.65;;;9.65;;
12441;SDS011;6285;48.804;9.220;2023-04-21T09:00:55;11.30;;;10.18;;
12441;SDS011;6285;48.804;9.220;2023-04-21T09:03:23;11.20;;;10.13;;
12441;SDS011;6285;48.804;9.220;2023-04-21T09:05:56;11.63;;;10.43;;
12441;SDS011;6285;48.804;9.220;2023-04-21T09:08:25;11.48;;;9.50;;
12441;SDS011;6285;48.804;9.220;2023-04-21T09:10:54;10.90;;;9.88;;
12441;SDS011;6285;48.804;9.220;2023-04-21T09:13:27;12.32;;;11.02;;
12441;SDS011;6285;48.804;9.220;2023-04-21T09:15:55;10.75;;;9.63;;
12441;SDS011;6285;48.804;9.220;2023-04-21T09:18:22;11.27;;;10.18;;
12441;SDS011;6285;48.804;9.220;2023-04-21T09:20:51;11.52;;;10.40;;
12441;SDS011;6285;48.804;9.220;2023-04-21T09:23:39;12.55;;;11.25;;
12441;SDS011;6285;48.804;9.220;2023-04-21T09:26:07;10.70;;;9.70;;
12441;SDS011;6285;48.804;9.220;2023-04-21T09:28:34;12.52;;;11.00;;
12441;SDS011;6285;48.804;9.220;2023-04-21T09:31:01;10.20;;;9.30;;
12441;SDS011;6285;48.804;9.220;2023-04-21T09:33:30;10.82;;;9.75;;
12441;SDS011;6285;48.804;9.220;2023-04-21T09:35:59;9.95;;;9.05;;
12441;SDS011;6285;48.804;9.220;2023-04-21T09:38:27;10.00;;;9.05;;
12441;SDS011;6285;48.804;9.220;2023-04-21T09:40:58;9.32;;;8.43;;
12441;SDS011;6285;48.804;9.220;2023-04-21T09:43:25;10.10;;;9.10;;
12441;SDS011;6285;48.804;9.220;2023-04-21T09:45:52;9.95;;;8.95;;
12441;SDS011;6285;48.804;9.220;2023-04-21T09:48:20;9.85;;;8.95;;
12441;SDS011;6285;48.804;9.220;2023-04-21T09:50:49;9.82;;;8.93;;
12441;SDS011;6285;48.804;9.220;2023-04-21T09:53:17;9.85;;;8.93;;
12441;SDS011;6285;48.804;9.220;2023-04-21T09:55:49;9.60;;;8.70;;
12441;SDS011;6285;48.804;9.220;2023-04-21T09:58:19;9.30;;;8.40;;
12441;SDS011;6285;48.804;9.220;2023-04-21T10:00:48;10.68;;;9.68;;
12441;SDS011;6285;48.804;9.220;2023-04-21T10:03:16;10.10;;;9.10;;
12441;SDS011;6285;48.804;9.220;2023-04-21T10:05:44;9.30;;;8.38;;
12441;SDS011;6285;48.804;9.220;2023-04-21T10:08:11;9.23;;;8.25;;
12441;SDS011;6285;48.804;9.220;2023-04-21T10:10:38;9.68;;;8.73;;
12441;SDS011;6285;48.804;9.220;2023-04-21T10:13:05;8.98;;;8.18;;
12441;SDS011;6285;48.804;9.220;2023-04-21T10:15:38;9.75;;;8.85;;
12441;SDS011;6285;48.804;9.220;2023-04-21T10:18:14;9.40;;;8.60;;
12441;SDS011;6285;48.804;9.220;2023-04-21T10:20:51;9.57;;;8.68;;
12441;SDS011;6285;48.804;9.220;2023-04-21T10:23:28;7.70;;;7.10;;
12441;SDS011;6285;48.804;9.220;2023-04-21T10:26:06;8.82;;;7.82;;
12441;SDS011;6285;48.804;9.220;2023-04-21T10:28:47;7.43;;;6.82;;
12441;SDS011;6285;48.804;9.220;2023-04-21T10:31:20;7.80;;;7.10;;
12441;SDS011;6285;48.804;9.220;2023-04-21T10:36:33;7.90;;;7.20;;
12441;SDS011;6285;48.804;9.220;2023-04-21T10:39:02;8.10;;;7.40;;
12441;SDS011;6285;48.804;9.220;2023-04-21T10:41:29;8.32;;;7.38;;
12441;SDS011;6285;48.804;9.220;2023-04-21T10:43:57;6.80;;;6.30;;
12441;SDS011;6285;48.804;9.220;2023-04-21T10:46:31;6.82;;;6.25;;
12441;SDS011;6285;48.804;9.220;2023-04-21T10:49:06;8.07;;;7.38;;
12441;SDS011;6285;48.804;9.220;2023-04-21T10:54:16;7.47;;;6.78;;
12441;SDS011;6285;48.804;9.220;2023-04-21T10:56:43;6.90;;;6.13;;
12441;SDS011;6285;48.804;9.220;2023-04-21T10:59:10;7.03;;;6.43;;
12441;SDS011;6285;48.804;9.220;2023-04-21T11:01:39;6.97;;;6.35;;
12441;SDS011;6285;48.804;9.220;2023-04-21T11:04:11;8.63;;;6.75;;
12441;SDS011;6285;48.804;9.220;2023-04-21T11:06:39;6.30;;;5.70;;
12441;SDS011;6285;48.804;9.220;2023-04-21T11:09:06;6.80;;;6.10;;
12441;SDS011;6285;48.804;9.220;2023-04-21T11:11:33;6.63;;;5.90;;
12441;SDS011;6285;48.804;9.220;2023-04-21T11:14:00;6.25;;;5.65;;
12441;SDS011;6285;48.804;9.220;2023-04-21T11:16:27;7.05;;;6.03;;
12441;SDS011;6285;48.804;9.220;2023-04-21T11:18:56;6.50;;;5.90;;
12441;SDS011;6285;48.804;9.220;2023-04-21T11:21:23;6.45;;;5.85;;
12441;SDS011;6285;48.804;9.220;2023-04-21T11:23:50;6.15;;;5.60;;
12441;SDS011;6285;48.804;9.220;2023-04-21T11:26:18;6.45;;;5.95;;
12441;SDS011;6285;48.804;9.220;2023-04-21T11:28:55;6.72;;;6.13;;
12441;SDS011;6285;48.804;9.220;2023-04-21T11:31:22;6.57;;;5.97;;
12441;SDS011;6285;48.804;9.220;2023-04-21T11:33:54;7.30;;;6.55;;
12441;SDS011;6285;48.804;9.220;2023-04-21T11:36:23;7.45;;;6.70;;
12441;SDS011;6285;48.804;9.220;2023-04-21T11:38:51;8.60;;;6.75;;
12441;SDS011;6285;48.804;9.220;2023-04-21T11:41:21;7.82;;;7.10;;
12441;SDS011;6285;48.804;9.220;2023-04-21T11:43:49;8.82;;;7.28;;
12441;SDS011;6285;48.804;9.220;2023-04-21T11:46:17;7.20;;;6.45;;
12441;SDS011;6285;48.804;9.220;2023-04-21T11:48:57;8.40;;;7.53;;
12441;SDS011;6285;48.804;9.220;2023-04-21T11:51:25;8.13;;;6.95;;
12441;SDS011;6285;48.804;9.220;2023-04-21T11:53:53;6.80;;;6.20;;
12441;SDS011;6285;48.804;9.220;2023-04-21T11:56:20;6.82;;;5.97;;
12441;SDS011;6285;48.804;9.220;2023-04-21T11:58:48;6.70;;;6.10;;
12441;SDS011;6285;48.804;9.220;2023-04-21T12:01:16;7.03;;;6.38;;
12441;SDS011;6285;48.804;9.220;2023-04-21T12:03:49;7.35;;;6.65;;
12441;SDS011;6285;48.804;9.220;2023-04-21T12:06:19;6.47;;;5.65;;
12441;SDS011;6285;48.804;9.220;2023-04-21T12:08:47;6.07;;;5.53;;
12441;SDS011;6285;48.804;9.220;2023-04-21T12:11:15;6.60;;;6.00;;
12441;SDS011;6285;48.804;9.220;2023-04-21T12:13:43;5.93;;;5.32;;
12441;SDS011;6285;48.804;9.220;2023-04-21T12:16:11;6.13;;;5.53;;
12441;SDS011;6285;48.804;9.220;2023-04-21T12:18:38;6.22;;;5.50;;
12441;SDS011;6285;48.804;9.220;2023-04-21T12:21:05;5.78;;;5.28;;
12441;SDS011;6285;48.804;9.220;2023-04-21T12:23:32;6.28;;;5.68;;
12441;SDS011;6285;48.804;9.220;2023-04-21T12:26:00;5.60;;;5.10;;
12441;SDS011;6285;48.804;9.220;2023-04-21T12:28:28;5.43;;;4.93;;
12441;SDS011;6285;48.804;9.220;2023-04-21T12:30:55;5.50;;;5.00;;
12441;SDS011;6285;48.804;9.220;2023-04-21T12:33:22;6.70;;;4.60;;
12441;SDS011;6285;48.804;9.220;2023-04-21T12:35:49;5.25;;;4.72;;
12441;SDS011;6285;48.804;9.220;2023-04-21T12:38:16;5.40;;;4.50;;
12441;SDS011;6285;48.804;9.220;2023-04-21T12:40:43;4.97;;;4.47;;
12441;SDS011;6285;48.804;9.220;2023-04-21T12:43:11;4.65;;;4.25;;
12441;SDS011;6285;48.804;9.220;2023-04-21T12:45:38;4.78;;;4.38;;
12441;SDS011;6285;48.804;9.220;2023-04-21T12:48:05;5.30;;;4.80;;
12441;SDS011;6285;48.804;9.220;2023-04-21T12:50:32;4.95;;;4.55;;
12441;SDS011;6285;48.804;9.220;2023-04-21T12:52:59;4.75;;;4.22;;
12441;SDS011;6285;48.804;9.220;2023-04-21T12:55:26;4.85;;;4.45;;
12441;SDS011;6285;48.804;9.220;2023-04-21T12:57:53;4.88;;;4.47;;
12441;SDS011;6285;48.804;9.220;2023-04-21T13:00:21;4.35;;;3.95;;
12441;SDS011;6285;48.804;9.220;2023-04-21T13:02:48;5.18;;;4.60;;
12441;SDS011;6285;48.804;9.220;2023-04-21T13:05:15;4.65;;;4.25;;
12441;SDS011;6285;48.804;9.220;2023-04-21T13:07:42;4.75;;;4.35;;
12441;SDS011;6285;48.804;9.220;2023-04-21T13:10:09;4.20;;;3.80;;
12441;SDS011;6285;48.804;9.220;2023-04-21T13:12:37;5.55;;;4.13;;
12441;SDS011;6285;48.804;9.220;2023-04-21T13:15:05;6.15;;;3.97;;
12441;SDS011;6285;48.804;9.220;2023-04-21T13:17:34;4.93;;;4.53;;
12441;SDS011;6285;48.804;9.220;2023-04-21T13:20:01;5.90;;;5.20;;
12441;SDS011;6285;48.804;9.220;2023-04-21T13:22:28;4.20;;;3.80;;
12441;SDS011;6285;48.804;9.220;2023-04-21T13:24:55;4.97;;;4.22;;
12441;SDS011;6285;48.804;9.220;2023-04-21T13:27:22;5.03;;;4.53;;
12441;SDS011;6285;48.804;9.220;2023-04-21T13:29:50;4.70;;;4.20;;
12441;SDS011;6285;48.804;9.220;2023-04-21T13:32:18;5.28;;;4.78;;
12441;SDS011;6285;48.804;9.220;2023-04-21T13:34:46;4.07;;;3.78;;
12441;SDS011;6285;48.804;9.220;2023-04-21T13:37:13;4.40;;;4.00;;
12441;SDS011;6285;48.804;9.220;2023-04-21T13:39:41;4.18;;;3.78;;
12441;SDS011;6285;48.804;9.220;2023-04-21T13:42:08;5.25;;;4.38;;
12441;SDS011;6285;48.804;9.220;2023-04-21T13:44:35;5.35;;;3.85;;
12441;SDS011;6285;48.804;9.220;2023-04-21T13:47:02;4.50;;;4.10;;
12441;SDS011;6285;48.804;9.220;2023-04-21T13:49:29;3.95;;;3.55;;
12441;SDS011;6285;48.804;9.220;2023-04-21T13:51:57;4.15;;;3.67;;
12441;SDS011;6285;48.804;9.220;2023-04-21T13:54:25;3.78;;;3.42;;
12441;SDS011;6285;48.804;9.220;2023-04-21T13:56:52;4.45;;;3.80;;
12441;SDS011;6285;48.804;9.220;2023-04-21T13:59:19;4.40;;;4.00;;
12441;SDS011;6285;48.804;9.220;2023-04-21T14:01:46;3.80;;;3.50;;
12441;SDS011;6285;48.804;9.220;2023-04-21T14:04:13;4.25;;;3.85;;
12441;SDS011;6285;48.804;9.220;2023-04-21T14:06:40;3.90;;;3.55;;
12441;SDS011;6285;48.804;9.220;2023-04-21T14:09:09;4.15;;;3.08;;
12441;SDS011;6285;48.804;9.220;2023-04-21T14:11:36;3.30;;;3.00;;
12441;SDS011;6285;48.804;9.220;2023-04-21T14:14:03;3.85;;;3.10;;
12441;SDS011;6285;48.804;9.220;2023-04-21T14:16:30;3.38;;;2.75;;
12441;SDS011;6285;48.804;9.220;2023-04-21T14:18:57;2.70;;;2.40;;
12441;SDS011;6285;48.804;9.220;2023-04-21T14:21:24;3.00;;;2.72;;
12441;SDS011;6285;48.804;9.220;2023-04-21T14:23:51;4.10;;;2.92;;
12441;SDS011;6285;48.804;9.220;2023-04-21T14:26:20;3.75;;;3.13;;
12441;SDS011;6285;48.804;9.220;2023-04-21T14:28:47;2.72;;;2.40;;
12441;SDS011;6285;48.804;9.220;2023-04-21T14:31:14;3.22;;;2.95;;
12441;SDS011;6285;48.804;9.220;2023-04-21T14:33:41;3.22;;;2.65;;
12441;SDS011;6285;48.804;9.220;2023-04-21T14:36:08;4.72;;;2.80;;
12441;SDS011;6285;48.804;9.220;2023-04-21T14:38:35;3.30;;;2.63;;
12441;SDS011;6285;48.804;9.220;2023-04-21T14:41:03;2.92;;;2.67;;
12441;SDS011;6285;48.804;9.220;2023-04-21T14:43:31;2.90;;;2.70;;
12441;SDS011;6285;48.804;9.220;2023-04-21T14:45:58;4.10;;;2.90;;
12441;SDS011;6285;48.804;9.220;2023-04-21T14:48:25;3.10;;;2.80;;
12441;SDS011;6285;48.804;9.220;2023-04-21T14:50:53;3.55;;;2.90;;
12441;SDS011;6285;48.804;9.220;2023-04-21T14:53:21;3.05;;;2.75;;